sensor_id;sensor_type;location;lat;lon;timestamp;P1;durP1;ratioP1;P2;durP2;ratioP2
68250;SDS011;55066;51.560;4.642;2023-09-19T00:02:17;7.90;;;1.40;;
68250;SDS011;55066;51.560;4.642;2023-09-19T00:04:43;10.40;;;1.60;;
68250;SDS011;55066;51.560;4.642;2023-09-19T00:07:09;8.50;;;1.67;;
68250;SDS011;55066;51.560;4.642;2023-09-19T00:09:35;10.80;;;1.60;;
68250;SDS011;55066;51.560;4.642;2023-09-19T00:12:04;11.18;;;1.50;;
68250;SDS011;55066;51.560;4.642;2023-09-19T00:14:31;8.20;;;1.38;;
68250;SDS011;55066;51.560;4.642;2023-09-19T00:16:59;9.67;;;1.80;;
68250;SDS011;55066;51.560;4.642;2023-09-19T00:19:25;7.43;;;1.55;;
68250;SDS011;55066;51.560;4.642;2023-09-19T00:21:51;9.60;;;1.30;;
68250;SDS011;55066;51.560;4.642;2023-09-19T00:24:18;11.32;;;1.58;;
68250;SDS011;55066;51.560;4.642;2023-09-19T00:26:44;11.80;;;1.93;;
68250;SDS011;55066;51.560;4.642;2023-09-19T00:29:11;8.88;;;1.30;;
68250;SDS011;55066;51.560;4.642;2023-09-19T00:31:43;7.75;;;1.20;;
68250;SDS011;55066;51.560;4.642;2023-09-19T00:34:09;10.80;;;1.43;;
68250;SDS011;55066;51.560;4.642;2023-09-19T00:36:36;7.53;;;1.40;;
68250;SDS011;55066;51.560;4.642;2023-09-19T00:39:04;8.85;;;1.60;;
68250;SDS011;55066;51.560;4.642;2023-09-19T00:41:34;11.98;;;1.60;;
68250;SDS011;55066;51.560;4.642;2023-09-19T00:44:03;7.28;;;1.40;;
68250;SDS011;55066;51.560;4.642;2023-09-19T00:46:32;8.80;;;1.50;;
68250;SDS011;55066;51.560;4.642;2023-09-19T00:48:58;8.05;;;1.45;;
68250;SDS011;55066;51.560;4.642;2023-09-19T00:51:24;9.43;;;1.42;;
68250;SDS011;55066;51.560;4.642;2023-09-19T00:53:52;8.32;;;1.48;;
68250;SDS011;55066;51.560;4.642;2023-09-19T00:56:19;11.00;;;1.73;;
68250;SDS011;55066;51.560;4.642;2023-09-19T00:58:45;5.30;;;1.40;;
68250;SDS011;55066;51.560;4.642;2023-09-19T01:01:12;7.30;;;1.55;;
68250;SDS011;55066;51.560;4.642;2023-09-19T01:03:39;11.45;;;1.40;;
68250;SDS011;55066;51.560;4.642;2023-09-19T01:06:06;8.55;;;1.40;;
68250;SDS011;55066;51.560;4.642;2023-09-19T01:08:33;10.75;;;1.75;;
68250;SDS011;55066;51.560;4.642;2023-09-19T01:11:25;13.38;;;1.58;;
68250;SDS011;55066;51.560;4.642;2023-09-19T01:13:58;9.30;;;1.50;;
68250;SDS011;55066;51.560;4.642;2023-09-19T01:16:35;6.13;;;1.55;;
68250;SDS011;55066;51.560;4.642;2023-09-19T01:19:22;12.07;;;1.85;;
68250;SDS011;55066;51.560;4.642;2023-09-19T01:22:16;8.75;;;1.65;;
68250;SDS011;55066;51.560;4.642;2023-09-19T01:30:20;6.20;;;1.40;;
68250;SDS011;55066;51.560;4.642;2023-09-19T01:32:52;5.60;;;1.40;;
68250;SDS011;55066;51.560;4.642;2023-09-19T01:35:19;6.88;;;1.60;;
68250;SDS011;55066;51.560;4.642;2023-09-19T01:37:44;8.35;;;1.45;;
68250;SDS011;55066;51.560;4.642;2023-09-19T01:40:14;8.03;;;1.67;;
68250;SDS011;55066;51.560;4.642;2023-09-19T01:48:41;7.78;;;1.52;;
68250;SDS011;55066;51.560;4.642;2023-09-19T01:51:11;9.10;;;1.40;;
68250;SDS011;55066;51.560;4.642;2023-09-19T01:56:21;5.63;;;1.30;;
68250;SDS011;55066;51.560;4.642;2023-09-19T01:59:06;9.57;;;1.50;;
68250;SDS011;55066;51.560;4.642;2023-09-19T02:01:35;8.30;;;1.60;;
68250;SDS011;55066;51.560;4.642;2023-09-19T02:04:03;11.77;;;1.70;;
68250;SDS011;55066;51.560;4.642;2023-09-19T02:06:30;10.85;;;1.42;;
68250;SDS011;55066;51.560;4.642;2023-09-19T02:08:56;9.68;;;1.50;;
68250;SDS011;55066;51.560;4.642;2023-09-19T02:11:22;8.80;;;1.70;;
68250;SDS011;55066;51.560;4.642;2023-09-19T02:13:48;11.15;;;2.13;;
68250;SDS011;55066;51.560;4.642;2023-09-19T02:16:18;7.25;;;1.48;;
68250;SDS011;55066;51.560;4.642;2023-09-19T02:18:47;10.00;;;1.60;;
68250;SDS011;55066;51.560;4.642;2023-09-19T02:21:14;14.02;;;2.33;;
68250;SDS011;55066;51.560;4.642;2023-09-19T02:23:40;8.45;;;1.73;;
68250;SDS011;55066;51.560;4.642;2023-09-19T02:26:06;7.17;;;1.70;;
68250;SDS011;55066;51.560;4.642;2023-09-19T02:28:32;10.65;;;2.15;;
68250;SDS011;55066;51.560;4.642;2023-09-19T02:30:59;8.43;;;1.40;;
68250;SDS011;55066;51.560;4.642;2023-09-19T02:33:24;8.83;;;1.37;;
68250;SDS011;55066;51.560;4.642;2023-09-19T02:35:55;7.78;;;1.63;;
68250;SDS011;55066;51.560;4.642;2023-09-19T02:38:27;6.57;;;1.63;;
68250;SDS011;55066;51.560;4.642;2023-09-19T02:40:54;8.82;;;1.98;;
68250;SDS011;55066;51.560;4.642;2023-09-19T02:43:20;11.98;;;1.92;;
68250;SDS011;55066;51.560;4.642;2023-09-19T02:45:47;12.60;;;1.75;;
68250;SDS011;55066;51.560;4.642;2023-09-19T02:48:15;10.65;;;1.67;;
68250;SDS011;55066;51.560;4.642;2023-09-19T02:50:41;9.88;;;1.65;;
68250;SDS011;55066;51.560;4.642;2023-09-19T02:53:07;9.48;;;1.80;;
68250;SDS011;55066;51.560;4.642;2023-09-19T02:55:33;8.10;;;1.63;;
68250;SDS011;55066;51.560;4.642;2023-09-19T02:57:59;6.47;;;1.50;;
68250;SDS011;55066;51.560;4.642;2023-09-19T03:00:25;7.97;;;1.45;;
68250;SDS011;55066;51.560;4.642;2023-09-19T03:02:53;7.30;;;1.60;;
68250;SDS011;55066;51.560;4.642;2023-09-19T03:05:20;8.18;;;1.60;;
68250;SDS011;55066;51.560;4.642;2023-09-19T03:07:47;10.20;;;1.50;;
68250;SDS011;55066;51.560;4.642;2023-09-19T03:10:16;10.10;;;1.90;;
68250;SDS011;55066;51.560;4.642;2023-09-19T03:12:42;11.25;;;1.77;;
68250;SDS011;55066;51.560;4.642;2023-09-19T03:15:08;8.52;;;2.10;;
68250;SDS011;55066;51.560;4.642;2023-09-19T03:17:35;8.90;;;2.20;;
68250;SDS011;55066;51.560;4.642;2023-09-19T03:20:01;8.73;;;1.40;;
68250;SDS011;55066;51.560;4.642;2023-09-19T03:22:29;10.65;;;1.73;;
68250;SDS011;55066;51.560;4.642;2023-09-19T03:24:55;12.40;;;2.00;;
68250;SDS011;55066;51.560;4.642;2023-09-19T03:27:22;7.90;;;1.70;;
68250;SDS011;55066;51.560;4.642;2023-09-19T03:29:48;8.98;;;1.70;;
68250;SDS011;55066;51.560;4.642;2023-09-19T03:32:14;8.47;;;1.50;;
68250;SDS011;55066;51.560;4.642;2023-09-19T03:34:40;9.55;;;1.85;;
68250;SDS011;55066;51.560;4.642;2023-09-19T03:37:07;8.27;;;1.48;;
68250;SDS011;55066;51.560;4.642;2023-09-19T03:39:34;7.88;;;1.38;;
68250;SDS011;55066;51.560;4.642;2023-09-19T03:42:00;10.20;;;1.60;;
68250;SDS011;55066;51.560;4.642;2023-09-19T03:44:26;10.05;;;1.95;;
68250;SDS011;55066;51.560;4.642;2023-09-19T03:46:52;6.27;;;1.50;;
68250;SDS011;55066;51.560;4.642;2023-09-19T03:49:17;8.88;;;1.70;;
68250;SDS011;55066;51.560;4.642;2023-09-19T03:51:44;9.57;;;1.73;;
68250;SDS011;55066;51.560;4.642;2023-09-19T03:54:09;8.68;;;1.50;;
68250;SDS011;55066;51.560;4.642;2023-09-19T03:56:35;6.87;;;1.90;;
68250;SDS011;55066;51.560;4.642;2023-09-19T03:59:01;9.83;;;2.03;;
68250;SDS011;55066;51.560;4.642;2023-09-19T04:01:26;8.70;;;1.45;;
68250;SDS011;55066;51.560;4.642;2023-09-19T04:03:53;8.73;;;1.50;;
68250;SDS011;55066;51.560;4.642;2023-09-19T04:06:18;8.05;;;1.42;;
68250;SDS011;55066;51.560;4.642;2023-09-19T04:08:44;8.80;;;1.57;;
68250;SDS011;55066;51.560;4.642;2023-09-19T04:11:12;11.38;;;1.77;;
68250;SDS011;55066;51.560;4.642;2023-09-19T04:13:38;9.00;;;1.70;;
68250;SDS011;55066;51.560;4.642;2023-09-19T04:16:03;9.23;;;1.65;;
68250;SDS011;55066;51.560;4.642;2023-09-19T04:18:29;7.35;;;1.40;;
68250;SDS011;55066;51.560;4.642;2023-09-19T04:20:59;11.93;;;1.67;;
68250;SDS011;55066;51.560;4.642;2023-09-19T04:23:27;6.05;;;1.45;;
68250;SDS011;55066;51.560;4.642;2023-09-19T04:25:53;11.15;;;1.45;;
68250;SDS011;55066;51.560;4.642;2023-09-19T04:28:19;11.13;;;1.60;;
68250;SDS011;55066;51.560;4.642;2023-09-19T04:30:44;8.13;;;1.58;;
68250;SDS011;55066;51.560;4.642;2023-09-19T04:33:10;12.85;;;2.65;;
68250;SDS011;55066;51.560;4.642;2023-09-19T04:35:36;9.73;;;1.42;;
68250;SDS011;55066;51.560;4.642;2023-09-19T04:38:04;8.95;;;1.60;;
68250;SDS011;55066;51.560;4.642;2023-09-19T04:40:32;9.43;;;1.65;;
68250;SDS011;55066;51.560;4.642;2023-09-19T04:42:58;10.23;;;1.88;;
68250;SDS011;55066;51.560;4.642;2023-09-19T04:45:24;7.43;;;1.80;;
68250;SDS011;55066;51.560;4.642;2023-09-19T04:47:50;6.35;;;1.30;;
68250;SDS011;55066;51.560;4.642;2023-09-19T04:50:15;14.38;;;2.00;;
68250;SDS011;55066;51.560;4.642;2023-09-19T04:52:42;7.70;;;1.40;;
68250;SDS011;55066;51.560;4.642;2023-09-19T04:55:12;6.40;;;1.48;;
68250;SDS011;55066;51.560;4.642;2023-09-19T04:57:48;7.28;;;1.40;;
68250;SDS011;55066;51.560;4.642;2023-09-19T05:00:21;5.90;;;1.42;;
68250;SDS011;55066;51.560;4.642;2023-09-19T05:02:54;9.38;;;1.45;;
68250;SDS011;55066;51.560;4.642;2023-09-19T05:05:24;10.67;;;1.77;;
68250;SDS011;55066;51.560;4.642;2023-09-19T05:07:51;7.80;;;1.60;;
68250;SDS011;55066;51.560;4.642;2023-09-19T05:10:19;8.90;;;1.33;;
68250;SDS011;55066;51.560;4.642;2023-09-19T05:12:45;11.43;;;1.52;;
68250;SDS011;55066;51.560;4.642;2023-09-19T05:15:12;6.82;;;1.38;;
68250;SDS011;55066;51.560;4.642;2023-09-19T05:17:40;14.67;;;1.57;;
68250;SDS011;55066;51.560;4.642;2023-09-19T05:20:05;8.63;;;1.40;;
68250;SDS011;55066;51.560;4.642;2023-09-19T05:22:50;8.10;;;1.52;;
68250;SDS011;55066;51.560;4.642;2023-09-19T05:25:22;11.47;;;1.83;;
68250;SDS011;55066;51.560;4.642;2023-09-19T05:27:48;10.70;;;1.73;;
68250;SDS011;55066;51.560;4.642;2023-09-19T05:30:13;8.03;;;1.70;;
68250;SDS011;55066;51.560;4.642;2023-09-19T05:32:40;8.48;;;1.48;;
68250;SDS011;55066;51.560;4.642;2023-09-19T05:35:06;10.15;;;1.60;;
68250;SDS011;55066;51.560;4.642;2023-09-19T05:37:34;12.63;;;2.15;;
68250;SDS011;55066;51.560;4.642;2023-09-19T05:40:02;8.20;;;1.50;;
68250;SDS011;55066;51.560;4.642;2023-09-19T05:42:35;10.02;;;1.70;;
68250;SDS011;55066;51.560;4.642;2023-09-19T05:45:00;11.10;;;1.90;;
68250;SDS011;55066;51.560;4.642;2023-09-19T05:47:26;10.75;;;1.70;;
68250;SDS011;55066;51.560;4.642;2023-09-19T05:49:51;13.27;;;1.77;;
68250;SDS011;55066;51.560;4.642;2023-09-19T05:52:17;10.32;;;1.65;;
68250;SDS011;55066;51.560;4.642;2023-09-19T05:54:43;9.70;;;1.90;;
68250;SDS011;55066;51.560;4.642;2023-09-19T05:57:09;9.00;;;1.50;;
68250;SDS011;55066;51.560;4.642;2023-09-19T05:59:37;9.73;;;1.65;;
68250;SDS011;55066;51.560;4.642;2023-09-19T06:02:05;12.40;;;1.98;;
68250;SDS011;55066;51.560;4.642;2023-09-19T06:04:31;10.95;;;1.65;;
68250;SDS011;55066;51.560;4.642;2023-09-19T06:06:57;8.20;;;1.67;;
68250;SDS011;55066;51.560;4.642;2023-09-19T06:09:23;8.00;;;1.48;;
68250;SDS011;55066;51.560;4.642;2023-09-19T06:11:49;11.87;;;2.00;;
68250;SDS011;55066;51.560;4.642;2023-09-19T06:14:14;12.05;;;1.88;;
68250;SDS011;55066;51.560;4.642;2023-09-19T06:16:43;20.23;;;4.73;;
68250;SDS011;55066;51.560;4.642;2023-09-19T06:19:08;27.75;;;7.15;;
68250;SDS011;55066;51.560;4.642;2023-09-19T06:21:35;14.55;;;3.45;;
68250;SDS011;55066;51.560;4.642;2023-09-19T06:24:01;10.48;;;2.55;;
68250;SDS011;55066;51.560;4.642;2023-09-19T06:26:28;10.27;;;1.50;;
68250;SDS011;55066;51.560;4.642;2023-09-19T06:28:54;14.00;;;1.85;;
68250;SDS011;55066;51.560;4.642;2023-09-19T06:31:21;10.65;;;1.63;;
68250;SDS011;55066;51.560;4.642;2023-09-19T06:33:48;11.82;;;1.75;;
68250;SDS011;55066;51.560;4.642;2023-09-19T06:36:13;9.90;;;1.73;;
68250;SDS011;55066;51.560;4.642;2023-09-19T06:38:40;9.80;;;1.92;;
68250;SDS011;55066;51.560;4.642;2023-09-19T06:41:06;13.48;;;1.73;;
68250;SDS011;55066;51.560;4.642;2023-09-19T06:43:34;9.33;;;1.70;;
68250;SDS011;55066;51.560;4.642;2023-09-19T06:46:00;12.57;;;1.60;;
68250;SDS011;55066;51.560;4.642;2023-09-19T06:48:26;13.65;;;1.50;;
68250;SDS011;55066;51.560;4.642;2023-09-19T06:50:56;13.90;;;1.80;;
68250;SDS011;55066;51.560;4.642;2023-09-19T06:53:23;11.23;;;1.52;;
68250;SDS011;55066;51.560;4.642;2023-09-19T06:55:50;16.90;;;1.60;;
68250;SDS011;55066;51.560;4.642;2023-09-19T06:58:17;8.80;;;1.50;;
68250;SDS011;55066;51.560;4.642;2023-09-19T07:00:42;14.30;;;1.88;;
68250;SDS011;55066;51.560;4.642;2023-09-19T07:03:09;14.23;;;1.60;;
68250;SDS011;55066;51.560;4.642;2023-09-19T07:05:38;12.38;;;1.90;;
68250;SDS011;55066;51.560;4.642;2023-09-19T07:08:05;13.38;;;1.70;;
68250;SDS011;55066;51.560;4.642;2023-09-19T07:10:32;13.35;;;1.70;;
68250;SDS011;55066;51.560;4.642;2023-09-19T07:12:59;20.50;;;2.30;;
68250;SDS011;55066;51.560;4.642;2023-09-19T07:15:25;10.38;;;1.60;;
68250;SDS011;55066;51.560;4.642;2023-09-19T07:17:52;11.13;;;2.00;;
68250;SDS011;55066;51.560;4.642;2023-09-19T07:20:21;9.00;;;1.30;;
68250;SDS011;55066;51.560;4.642;2023-09-19T07:22:50;11.65;;;1.95;;
68250;SDS011;55066;51.560;4.642;2023-09-19T07:25:16;15.57;;;2.03;;
68250;SDS011;55066;51.560;4.642;2023-09-19T07:27:42;10.45;;;1.50;;
68250;SDS011;55066;51.560;4.642;2023-09-19T07:30:08;12.60;;;1.80;;
68250;SDS011;55066;51.560;4.642;2023-09-19T07:32:34;12.65;;;2.20;;
68250;SDS011;55066;51.560;4.642;2023-09-19T07:35:03;8.90;;;1.85;;
68250;SDS011;55066;51.560;4.642;2023-09-19T07:37:30;9.10;;;1.65;;
68250;SDS011;55066;51.560;4.642;2023-09-19T07:40:04;8.30;;;1.70;;
68250;SDS011;55066;51.560;4.642;2023-09-19T07:42:34;17.13;;;2.70;;
68250;SDS011;55066;51.560;4.642;2023-09-19T07:45:06;12.20;;;2.95;;
68250;SDS011;55066;51.560;4.642;2023-09-19T07:47:32;13.30;;;2.38;;
68250;SDS011;55066;51.560;4.642;2023-09-19T07:49:59;11.52;;;1.98;;
68250;SDS011;55066;51.560;4.642;2023-09-19T07:52:26;11.52;;;1.80;;
68250;SDS011;55066;51.560;4.642;2023-09-19T07:54:52;11.93;;;2.00;;
68250;SDS011;55066;51.560;4.642;2023-09-19T07:57:18;10.60;;;1.77;;
68250;SDS011;55066;51.560;4.642;2023-09-19T07:59:46;9.68;;;1.80;;
68250;SDS011;55066;51.560;4.642;2023-09-19T08:02:11;8.50;;;1.50;;
68250;SDS011;55066;51.560;4.642;2023-09-19T08:04:43;9.75;;;1.58;;
68250;SDS011;55066;51.560;4.642;2023-09-19T08:07:11;7.95;;;1.42;;
68250;SDS011;55066;51.560;4.642;2023-09-19T08:09:38;9.27;;;1.92;;
68250;SDS011;55066;51.560;4.642;2023-09-19T08:12:04;14.90;;;1.87;;
68250;SDS011;55066;51.560;4.642;2023-09-19T08:14:35;11.35;;;1.83;;
68250;SDS011;55066;51.560;4.642;2023-09-19T08:17:01;16.15;;;1.70;;
68250;SDS011;55066;51.560;4.642;2023-09-19T08:19:27;7.77;;;1.40;;
68250;SDS011;55066;51.560;4.642;2023-09-19T08:21:57;9.30;;;1.67;;
68250;SDS011;55066;51.560;4.642;2023-09-19T08:24:29;8.32;;;1.70;;
68250;SDS011;55066;51.560;4.642;2023-09-19T08:26:55;14.03;;;1.97;;
68250;SDS011;55066;51.560;4.642;2023-09-19T08:29:22;13.02;;;2.00;;
68250;SDS011;55066;51.560;4.642;2023-09-19T08:31:55;10.43;;;2.00;;
68250;SDS011;55066;51.560;4.642;2023-09-19T08:34:24;15.00;;;1.92;;
68250;SDS011;55066;51.560;4.642;2023-09-19T08:36:53;9.15;;;1.70;;
68250;SDS011;55066;51.560;4.642;2023-09-19T08:39:22;8.63;;;1.57;;
68250;SDS011;55066;51.560;4.642;2023-09-19T08:41:48;10.80;;;1.70;;
68250;SDS011;55066;51.560;4.642;2023-09-19T08:44:14;9.98;;;1.77;;
68250;SDS011;55066;51.560;4.642;2023-09-19T08:46:41;6.97;;;1.58;;
68250;SDS011;55066;51.560;4.642;2023-09-19T08:49:12;10.90;;;1.73;;
68250;SDS011;55066;51.560;4.642;2023-09-19T08:51:49;8.63;;;1.93;;
68250;SDS011;55066;51.560;4.642;2023-09-19T08:54:25;8.30;;;1.90;;
68250;SDS011;55066;51.560;4.642;2023-09-19T08:56:54;12.52;;;1.80;;
68250;SDS011;55066;51.560;4.642;2023-09-19T08:59:22;13.10;;;2.35;;
68250;SDS011;55066;51.560;4.642;2023-09-19T09:01:52;11.52;;;1.60;;
68250;SDS011;55066;51.560;4.642;2023-09-19T09:04:20;8.80;;;1.60;;
68250;SDS011;55066;51.560;4.642;2023-09-19T09:06:47;14.93;;;2.13;;
68250;SDS011;55066;51.560;4.642;2023-09-19T09:09:18;6.90;;;1.63;;
68250;SDS011;55066;51.560;4.642;2023-09-19T09:11:43;8.27;;;1.67;;
68250;SDS011;55066;51.560;4.642;2023-09-19T09:14:09;10.00;;;1.58;;
68250;SDS011;55066;51.560;4.642;2023-09-19T09:16:36;16.55;;;1.83;;
68250;SDS011;55066;51.560;4.642;2023-09-19T09:19:03;11.35;;;1.98;;
68250;SDS011;55066;51.560;4.642;2023-09-19T09:21:30;13.60;;;3.70;;
68250;SDS011;55066;51.560;4.642;2023-09-19T09:24:19;12.40;;;2.30;;
68250;SDS011;55066;51.560;4.642;2023-09-19T09:26:56;10.65;;;2.97;;
68250;SDS011;55066;51.560;4.642;2023-09-19T09:32:24;8.75;;;1.80;;
68250;SDS011;55066;51.560;4.642;2023-09-19T09:34:52;10.80;;;2.03;;
68250;SDS011;55066;51.560;4.642;2023-09-19T09:37:19;8.82;;;1.75;;
68250;SDS011;55066;51.560;4.642;2023-09-19T09:39:49;8.65;;;1.77;;
68250;SDS011;55066;51.560;4.642;2023-09-19T09:42:29;10.60;;;1.65;;
68250;SDS011;55066;51.560;4.642;2023-09-19T09:45:16;6.65;;;1.35;;
68250;SDS011;55066;51.560;4.642;2023-09-19T09:47:59;10.13;;;1.37;;
68250;SDS011;55066;51.560;4.642;2023-09-19T09:50:29;10.85;;;1.50;;
68250;SDS011;55066;51.560;4.642;2023-09-19T09:56:05;10.98;;;1.60;;
68250;SDS011;55066;51.560;4.642;2023-09-19T09:58:36;7.95;;;1.40;;
68250;SDS011;55066;51.560;4.642;2023-09-19T10:01:17;10.37;;;1.67;;
68250;SDS011;55066;51.560;4.642;2023-09-19T10:03:43;6.25;;;1.30;;
68250;SDS011;55066;51.560;4.642;2023-09-19T10:06:13;9.65;;;1.50;;
68250;SDS011;55066;51.560;4.642;2023-09-19T10:09:01;7.40;;;1.57;;
68250;SDS011;55066;51.560;4.642;2023-09-19T10:11:49;9.27;;;1.58;;
68250;SDS011;55066;51.560;4.642;2023-09-19T10:14:30;11.35;;;1.60;;
68250;SDS011;55066;51.560;4.642;2023-09-19T10:16:58;10.20;;;1.30;;
68250;SDS011;55066;51.560;4.642;2023-09-19T10:19:42;6.57;;;1.30;;
68250;SDS011;55066;51.560;4.642;2023-09-19T10:22:14;8.73;;;1.30;;
68250;SDS011;55066;51.560;4.642;2023-09-19T10:24:41;7.25;;;1.73;;
68250;SDS011;55066;51.560;4.642;2023-09-19T10:27:10;4.85;;;1.33;;
68250;SDS011;55066;51.560;4.642;2023-09-19T10:29:36;7.07;;;1.30;;
68250;SDS011;55066;51.560;4.642;2023-09-19T10:32:05;5.47;;;1.02;;
68250;SDS011;55066;51.560;4.642;2023-09-19T10:34:40;10.07;;;1.40;;
68250;SDS011;55066;51.560;4.642;2023-09-19T10:37:08;8.77;;;1.17;;
68250;SDS011;55066;51.560;4.642;2023-09-19T10:39:37;4.97;;;1.02;;
68250;SDS011;55066;51.560;4.642;2023-09-19T10:42:06;8.18;;;1.00;;
68250;SDS011;55066;51.560;4.642;2023-09-19T10:44:34;5.88;;;0.95;;
68250;SDS011;55066;51.560;4.642;2023-09-19T10:47:04;5.30;;;1.00;;
68250;SDS011;55066;51.560;4.642;2023-09-19T10:49:32;7.72;;;2.05;;
68250;SDS011;55066;51.560;4.642;2023-09-19T10:51:58;6.55;;;2.10;;
68250;SDS011;55066;51.560;4.642;2023-09-19T10:54:27;5.20;;;1.23;;
68250;SDS011;55066;51.560;4.642;2023-09-19T10:56:57;6.53;;;1.30;;
68250;SDS011;55066;51.560;4.642;2023-09-19T10:59:24;4.55;;;1.10;;
68250;SDS011;55066;51.560;4.642;2023-09-19T11:01:56;5.22;;;1.20;;
68250;SDS011;55066;51.560;4.642;2023-09-19T11:04:26;6.60;;;0.90;;
68250;SDS011;55066;51.560;4.642;2023-09-19T11:07:01;6.63;;;1.10;;
68250;SDS011;55066;51.560;4.642;2023-09-19T11:09:54;7.23;;;1.20;;
68250;SDS011;55066;51.560;4.642;2023-09-19T11:14:54;5.28;;;1.30;;
68250;SDS011;55066;51.560;4.642;2023-09-19T11:30:43;6.82;;;1.10;;
68250;SDS011;55066;51.560;4.642;2023-09-19T11:33:16;7.47;;;1.60;;
68250;SDS011;55066;51.560;4.642;2023-09-19T11:35:58;5.72;;;1.02;;
68250;SDS011;55066;51.560;4.642;2023-09-19T11:46:31;6.30;;;0.97;;
68250;SDS011;55066;51.560;4.642;2023-09-19T11:49:05;6.35;;;0.95;;
68250;SDS011;55066;51.560;4.642;2023-09-19T11:51:41;4.65;;;0.80;;
68250;SDS011;55066;51.560;4.642;2023-09-19T11:54:12;3.63;;;0.88;;
68250;SDS011;55066;51.560;4.642;2023-09-19T11:56:43;6.65;;;0.90;;
68250;SDS011;55066;51.560;4.642;2023-09-19T11:59:10;5.70;;;1.00;;
68250;SDS011;55066;51.560;4.642;2023-09-19T12:01:36;4.07;;;1.05;;
68250;SDS011;55066;51.560;4.642;2023-09-19T12:04:05;7.43;;;1.02;;
68250;SDS011;55066;51.560;4.642;2023-09-19T12:06:35;5.57;;;0.90;;
68250;SDS011;55066;51.560;4.642;2023-09-19T12:09:04;7.67;;;0.80;;
68250;SDS011;55066;51.560;4.642;2023-09-19T12:11:40;7.85;;;1.30;;
68250;SDS011;55066;51.560;4.642;2023-09-19T12:14:08;4.45;;;1.05;;
68250;SDS011;55066;51.560;4.642;2023-09-19T12:16:34;4.00;;;0.90;;
68250;SDS011;55066;51.560;4.642;2023-09-19T12:22:02;3.73;;;1.20;;
68250;SDS011;55066;51.560;4.642;2023-09-19T12:24:32;6.85;;;2.35;;
68250;SDS011;55066;51.560;4.642;2023-09-19T12:27:01;7.93;;;0.95;;
68250;SDS011;55066;51.560;4.642;2023-09-19T12:29:30;5.70;;;0.70;;
68250;SDS011;55066;51.560;4.642;2023-09-19T12:31:57;7.75;;;0.88;;
68250;SDS011;55066;51.560;4.642;2023-09-19T12:34:24;4.73;;;1.00;;
68250;SDS011;55066;51.560;4.642;2023-09-19T12:37:04;2.60;;;0.65;;
68250;SDS011;55066;51.560;4.642;2023-09-19T12:39:52;3.78;;;0.70;;
68250;SDS011;55066;51.560;4.642;2023-09-19T12:42:25;5.13;;;0.80;;
68250;SDS011;55066;51.560;4.642;2023-09-19T12:44:57;5.82;;;0.90;;
68250;SDS011;55066;51.560;4.642;2023-09-19T12:47:26;5.47;;;0.83;;
68250;SDS011;55066;51.560;4.642;2023-09-19T12:52:48;2.85;;;0.70;;
68250;SDS011;55066;51.560;4.642;2023-09-19T12:55:24;3.47;;;0.90;;
68250;SDS011;55066;51.560;4.642;2023-09-19T12:58:02;3.60;;;0.70;;
68250;SDS011;55066;51.560;4.642;2023-09-19T13:00:37;3.63;;;0.93;;
68250;SDS011;55066;51.560;4.642;2023-09-19T13:05:47;2.78;;;1.00;;
68250;SDS011;55066;51.560;4.642;2023-09-19T13:08:27;6.88;;;1.35;;
68250;SDS011;55066;51.560;4.642;2023-09-19T13:11:10;3.65;;;0.60;;
68250;SDS011;55066;51.560;4.642;2023-09-19T13:13:41;4.83;;;0.80;;
68250;SDS011;55066;51.560;4.642;2023-09-19T13:16:10;6.03;;;1.17;;
68250;SDS011;55066;51.560;4.642;2023-09-19T13:18:43;4.53;;;1.08;;
68250;SDS011;55066;51.560;4.642;2023-09-19T13:21:13;4.28;;;0.90;;
68250;SDS011;55066;51.560;4.642;2023-09-19T13:23:52;6.25;;;1.05;;
68250;SDS011;55066;51.560;4.642;2023-09-19T13:26:19;3.33;;;0.90;;
68250;SDS011;55066;51.560;4.642;2023-09-19T13:28:45;5.40;;;1.20;;
68250;SDS011;55066;51.560;4.642;2023-09-19T13:31:13;3.78;;;0.90;;
68250;SDS011;55066;51.560;4.642;2023-09-19T13:33:43;5.53;;;1.20;;
68250;SDS011;55066;51.560;4.642;2023-09-19T13:36:10;6.23;;;0.83;;
68250;SDS011;55066;51.560;4.642;2023-09-19T13:38:37;2.90;;;0.80;;
68250;SDS011;55066;51.560;4.642;2023-09-19T13:41:02;4.30;;;1.10;;
68250;SDS011;55066;51.560;4.642;2023-09-19T13:43:28;4.10;;;1.10;;
68250;SDS011;55066;51.560;4.642;2023-09-19T13:45:54;5.13;;;1.77;;
68250;SDS011;55066;51.560;4.642;2023-09-19T13:48:20;8.52;;;1.23;;
68250;SDS011;55066;51.560;4.642;2023-09-19T13:50:48;5.90;;;1.00;;
68250;SDS011;55066;51.560;4.642;2023-09-19T13:53:14;7.13;;;2.17;;
68250;SDS011;55066;51.560;4.642;2023-09-19T13:55:39;8.50;;;1.50;;
68250;SDS011;55066;51.560;4.642;2023-09-19T13:58:05;4.03;;;1.17;;
68250;SDS011;55066;51.560;4.642;2023-09-19T14:00:32;5.43;;;1.60;;
68250;SDS011;55066;51.560;4.642;2023-09-19T14:03:02;4.47;;;1.10;;
68250;SDS011;55066;51.560;4.642;2023-09-19T14:05:29;5.40;;;1.40;;
68250;SDS011;55066;51.560;4.642;2023-09-19T14:07:55;7.03;;;1.20;;
68250;SDS011;55066;51.560;4.642;2023-09-19T14:10:22;6.20;;;1.10;;
68250;SDS011;55066;51.560;4.642;2023-09-19T14:12:48;5.23;;;1.17;;
68250;SDS011;55066;51.560;4.642;2023-09-19T14:15:13;4.32;;;1.10;;
68250;SDS011;55066;51.560;4.642;2023-09-19T14:17:39;3.30;;;1.00;;
68250;SDS011;55066;51.560;4.642;2023-09-19T14:20:07;5.15;;;1.30;;
68250;SDS011;55066;51.560;4.642;2023-09-19T14:22:35;6.32;;;1.20;;
68250;SDS011;55066;51.560;4.642;2023-09-19T14:25:02;4.20;;;1.07;;
68250;SDS011;55066;51.560;4.642;2023-09-19T14:27:29;5.18;;;1.20;;
68250;SDS011;55066;51.560;4.642;2023-09-19T14:29:54;4.85;;;1.65;;
68250;SDS011;55066;51.560;4.642;2023-09-19T14:32:22;7.67;;;2.67;;
68250;SDS011;55066;51.560;4.642;2023-09-19T14:34:47;5.00;;;1.50;;
68250;SDS011;55066;51.560;4.642;2023-09-19T14:37:13;5.43;;;1.57;;
68250;SDS011;55066;51.560;4.642;2023-09-19T14:39:39;4.60;;;1.55;;
68250;SDS011;55066;51.560;4.642;2023-09-19T14:42:05;5.95;;;1.40;;
68250;SDS011;55066;51.560;4.642;2023-09-19T14:44:31;7.20;;;1.60;;
68250;SDS011;55066;51.560;4.642;2023-09-19T14:46:56;6.10;;;1.30;;
68250;SDS011;55066;51.560;4.642;2023-09-19T14:49:22;4.80;;;1.27;;
68250;SDS011;55066;51.560;4.642;2023-09-19T14:51:47;4.13;;;1.20;;
68250;SDS011;55066;51.560;4.642;2023-09-19T14:54:13;5.30;;;1.33;;
68250;SDS011;55066;51.560;4.642;2023-09-19T14:56:42;3.97;;;1.00;;
68250;SDS011;55066;51.560;4.642;2023-09-19T14:59:07;4.57;;;1.20;;
68250;SDS011;55066;51.560;4.642;2023-09-19T15:01:36;6.57;;;1.40;;
68250;SDS011;55066;51.560;4.642;2023-09-19T15:04:02;7.32;;;1.25;;
68250;SDS011;55066;51.560;4.642;2023-09-19T15:06:28;7.50;;;2.88;;
68250;SDS011;55066;51.560;4.642;2023-09-19T15:08:53;6.67;;;1.33;;
68250;SDS011;55066;51.560;4.642;2023-09-19T15:11:19;7.70;;;1.38;;
68250;SDS011;55066;51.560;4.642;2023-09-19T15:13:46;4.93;;;1.10;;
68250;SDS011;55066;51.560;4.642;2023-09-19T15:16:13;5.78;;;1.20;;
68250;SDS011;55066;51.560;4.642;2023-09-19T15:18:40;7.07;;;1.52;;
68250;SDS011;55066;51.560;4.642;2023-09-19T15:21:10;7.97;;;1.48;;
68250;SDS011;55066;51.560;4.642;2023-09-19T15:23:37;8.43;;;1.40;;
68250;SDS011;55066;51.560;4.642;2023-09-19T15:26:04;6.47;;;1.60;;
68250;SDS011;55066;51.560;4.642;2023-09-19T15:28:30;4.32;;;1.30;;
68250;SDS011;55066;51.560;4.642;2023-09-19T15:30:58;4.85;;;1.20;;
68250;SDS011;55066;51.560;4.642;2023-09-19T15:33:27;6.22;;;1.30;;
68250;SDS011;55066;51.560;4.642;2023-09-19T15:36:02;5.75;;;1.40;;
68250;SDS011;55066;51.560;4.642;2023-09-19T15:41:30;7.05;;;1.55;;
68250;SDS011;55066;51.560;4.642;2023-09-19T15:43:58;4.60;;;1.35;;
68250;SDS011;55066;51.560;4.642;2023-09-19T15:46:26;4.50;;;1.20;;
68250;SDS011;55066;51.560;4.642;2023-09-19T15:48:52;9.53;;;1.60;;